sensor_id;sensor_type;location;lat;lon;timestamp;pressure;altitude;pressure_sealevel;temperature;humidity
6218;BME280;3142;48.206;11.550;2024-02-16T00:00:57;95677.03;;;9.90;75.21
6218;BME280;3142;48.206;11.550;2024-02-16T00:03:24;95677.03;;;9.90;75.71
6218;BME280;3142;48.206;11.550;2024-02-16T00:05:50;95672.44;;;9.99;75.35
6218;BME280;3142;48.206;11.550;2024-02-16T00:08:17;95675.69;;;10.14;74.91
6218;BME280;3142;48.206;11.550;2024-02-16T00:10:43;95678.53;;;10.19;75.32
6218;BME280;3142;48.206;11.550;2024-02-16T00:13:10;95675.69;;;10.14;75.65
6218;BME280;3142;48.206;11.550;2024-02-16T00:15:38;95668.72;;;10.21;74.59
6218;BME280;3142;48.206;11.550;2024-02-16T00:18:05;95664.47;;;10.20;74.31
6218;BME280;3142;48.206;11.550;2024-02-16T00:20:31;95670.25;;;10.09;74.38
6218;BME280;3142;48.206;11.550;2024-02-16T00:22:57;95665.00;;;9.96;74.81
6218;BME280;3142;48.206;11.550;2024-02-16T00:25:25;95657.72;;;9.85;74.91
6218;BME280;3142;48.206;11.550;2024-02-16T00:27:51;95659.72;;;9.76;74.78
6218;BME280;3142;48.206;11.550;2024-02-16T00:30:18;95654.44;;;9.69;75.47
6218;BME280;3142;48.206;11.550;2024-02-16T00:32:46;95655.66;;;9.67;76.07
6218;BME280;3142;48.206;11.550;2024-02-16T00:35:13;95660.25;;;9.65;75.68
6218;BME280;3142;48.206;11.550;2024-02-16T00:37:41;95663.22;;;9.55;75.30
6218;BME280;3142;48.206;11.550;2024-02-16T00:40:09;95651.75;;;9.49;75.55
6218;BME280;3142;48.206;11.550;2024-02-16T00:42:35;95656.38;;;9.47;76.13
6218;BME280;3142;48.206;11.550;2024-02-16T00:45:02;95658.59;;;9.50;75.68
6218;BME280;3142;48.206;11.550;2024-02-16T00:47:29;95654.94;;;9.45;76.07
6218;BME280;3142;48.206;11.550;2024-02-16T00:49:58;95652.53;;;9.43;75.60
6218;BME280;3142;48.206;11.550;2024-02-16T00:52:25;95655.72;;;9.39;75.75
6218;BME280;3142;48.206;11.550;2024-02-16T00:54:51;95655.53;;;9.40;75.66
6218;BME280;3142;48.206;11.550;2024-02-16T00:57:18;95649.69;;;9.38;76.45
6218;BME280;3142;48.206;11.550;2024-02-16T00:59:44;95643.00;;;9.29;75.82
6218;BME280;3142;48.206;11.550;2024-02-16T01:02:11;95631.88;;;9.14;77.64
6218;BME280;3142;48.206;11.550;2024-02-16T01:04:37;95647.72;;;9.06;78.36
6218;BME280;3142;48.206;11.550;2024-02-16T01:07:05;95645.47;;;9.03;78.33
6218;BME280;3142;48.206;11.550;2024-02-16T01:09:31;95645.91;;;9.06;77.56
6218;BME280;3142;48.206;11.550;2024-02-16T01:11:58;95641.50;;;9.07;78.99
6218;BME280;3142;48.206;11.550;2024-02-16T01:14:24;95634.28;;;9.09;79.07
6218;BME280;3142;48.206;11.550;2024-02-16T01:16:51;95632.84;;;9.06;78.83
6218;BME280;3142;48.206;11.550;2024-02-16T01:19:17;95630.25;;;9.06;78.57
6218;BME280;3142;48.206;11.550;2024-02-16T01:21:44;95637.72;;;9.16;77.84
6218;BME280;3142;48.206;11.550;2024-02-16T01:24:14;95641.31;;;9.15;78.54
6218;BME280;3142;48.206;11.550;2024-02-16T01:26:40;95648.75;;;9.18;78.42
6218;BME280;3142;48.206;11.550;2024-02-16T01:29:07;95646.00;;;9.19;78.47
6218;BME280;3142;48.206;11.550;2024-02-16T01:31:33;95650.81;;;9.23;77.94
6218;BME280;3142;48.206;11.550;2024-02-16T01:34:01;95645.00;;;9.27;77.28
6218;BME280;3142;48.206;11.550;2024-02-16T01:36:27;95656.72;;;9.38;78.63
6218;BME280;3142;48.206;11.550;2024-02-16T01:38:54;95657.94;;;9.42;77.68
6218;BME280;3142;48.206;11.550;2024-02-16T01:41:22;95649.88;;;9.37;77.94
6218;BME280;3142;48.206;11.550;2024-02-16T01:43:51;95645.25;;;9.32;77.66
6218;BME280;3142;48.206;11.550;2024-02-16T01:46:18;95644.81;;;9.29;77.54
6218;BME280;3142;48.206;11.550;2024-02-16T01:48:45;95638.63;;;9.36;78.10
6218;BME280;3142;48.206;11.550;2024-02-16T01:51:12;95641.91;;;9.52;78.12
6218;BME280;3142;48.206;11.550;2024-02-16T01:53:40;95632.53;;;9.64;77.30
6218;BME280;3142;48.206;11.550;2024-02-16T01:56:06;95627.13;;;9.72;75.82
6218;BME280;3142;48.206;11.550;2024-02-16T01:58:35;95624.53;;;9.78;76.52
6218;BME280;3142;48.206;11.550;2024-02-16T02:01:03;95629.38;;;9.82;76.33
6218;BME280;3142;48.206;11.550;2024-02-16T02:03:29;95635.81;;;9.86;75.52
6218;BME280;3142;48.206;11.550;2024-02-16T02:05:56;95627.19;;;9.98;75.79
6218;BME280;3142;48.206;11.550;2024-02-16T02:08:25;95624.59;;;9.98;75.54
6218;BME280;3142;48.206;11.550;2024-02-16T02:10:52;95614.34;;;9.90;74.46
6218;BME280;3142;48.206;11.550;2024-02-16T02:13:18;95625.72;;;9.69;75.57
6218;BME280;3142;48.206;11.550;2024-02-16T02:15:48;95623.28;;;9.68;76.17
6218;BME280;3142;48.206;11.550;2024-02-16T02:18:14;95627.91;;;9.72;75.30
6218;BME280;3142;48.206;11.550;2024-02-16T02:20:41;95620.53;;;9.76;76.12
6218;BME280;3142;48.206;11.550;2024-02-16T02:23:09;95624.75;;;9.77;75.39
6218;BME280;3142;48.206;11.550;2024-02-16T02:25:35;95618.28;;;9.66;75.75
6218;BME280;3142;48.206;11.550;2024-02-16T02:28:02;95620.09;;;9.72;75.87
6218;BME280;3142;48.206;11.550;2024-02-16T02:30:29;95623.13;;;9.83;76.56
6218;BME280;3142;48.206;11.550;2024-02-16T02:32:55;95623.41;;;10.01;75.52
6218;BME280;3142;48.206;11.550;2024-02-16T02:35:22;95619.78;;;10.08;74.82
6218;BME280;3142;48.206;11.550;2024-02-16T02:37:48;95612.94;;;10.07;75.37
6218;BME280;3142;48.206;11.550;2024-02-16T02:40:16;95614.56;;;10.08;74.28
6218;BME280;3142;48.206;11.550;2024-02-16T02:42:43;95610.97;;;10.16;74.55
6218;BME280;3142;48.206;11.550;2024-02-16T02:45:10;95613.16;;;10.13;74.70
6218;BME280;3142;48.206;11.550;2024-02-16T02:47:36;95606.53;;;10.17;74.46
6218;BME280;3142;48.206;11.550;2024-02-16T02:50:03;95611.78;;;10.23;73.74
6218;BME280;3142;48.206;11.550;2024-02-16T02:52:30;95610.38;;;10.27;72.97
6218;BME280;3142;48.206;11.550;2024-02-16T02:54:56;95620.25;;;10.25;72.78
6218;BME280;3142;48.206;11.550;2024-02-16T02:57:24;95611.13;;;10.08;72.88
6218;BME280;3142;48.206;11.550;2024-02-16T02:59:50;95614.72;;;10.00;73.62
6218;BME280;3142;48.206;11.550;2024-02-16T03:02:17;95621.16;;;9.98;73.38
6218;BME280;3142;48.206;11.550;2024-02-16T03:04:43;95622.16;;;9.90;72.47
6218;BME280;3142;48.206;11.550;2024-02-16T03:07:10;95618.31;;;9.79;72.01
6218;BME280;3142;48.206;11.550;2024-02-16T03:09:36;95621.72;;;9.73;72.79
6218;BME280;3142;48.206;11.550;2024-02-16T03:12:03;95631.53;;;9.71;73.05
6218;BME280;3142;48.206;11.550;2024-02-16T03:14:31;95633.75;;;9.68;72.30
6218;BME280;3142;48.206;11.550;2024-02-16T03:16:59;95631.13;;;9.61;73.11
6218;BME280;3142;48.206;11.550;2024-02-16T03:19:25;95625.69;;;9.63;73.22
6218;BME280;3142;48.206;11.550;2024-02-16T03:21:52;95629.72;;;9.65;72.55
6218;BME280;3142;48.206;11.550;2024-02-16T03:24:18;95627.31;;;9.64;72.43
6218;BME280;3142;48.206;11.550;2024-02-16T03:26:44;95636.75;;;9.65;72.30
6218;BME280;3142;48.206;11.550;2024-02-16T03:29:11;95631.34;;;9.66;73.25
6218;BME280;3142;48.206;11.550;2024-02-16T03:31:39;95623.09;;;9.63;72.54
6218;BME280;3142;48.206;11.550;2024-02-16T03:34:05;95634.16;;;9.71;72.51
6218;BME280;3142;48.206;11.550;2024-02-16T03:36:32;95631.78;;;9.76;72.07
6218;BME280;3142;48.206;11.550;2024-02-16T03:38:59;95640.41;;;9.77;72.95
6218;BME280;3142;48.206;11.550;2024-02-16T03:41:25;95643.03;;;9.77;73.28
6218;BME280;3142;48.206;11.550;2024-02-16T03:43:52;95633.59;;;9.76;73.02
6218;BME280;3142;48.206;11.550;2024-02-16T03:46:19;95635.34;;;9.69;73.41
6218;BME280;3142;48.206;11.550;2024-02-16T03:48:47;95634.16;;;9.71;72.48
6218;BME280;3142;48.206;11.550;2024-02-16T03:51:14;95640.56;;;9.62;73.36
6218;BME280;3142;48.206;11.550;2024-02-16T03:53:40;95631.53;;;9.65;73.34
6218;BME280;3142;48.206;11.550;2024-02-16T03:56:06;95638.53;;;9.58;73.34
6218;BME280;3142;48.206;11.550;2024-02-16T03:58:33;95640.13;;;9.59;72.95
6218;BME280;3142;48.206;11.550;2024-02-16T04:00:59;95641.94;;;9.58;73.34
6218;BME280;3142;48.206;11.550;2024-02-16T04:03:26;95647.75;;;9.54;73.17
6218;BME280;3142;48.206;11.550;2024-02-16T04:05:54;95646.13;;;9.46;73.87
6218;BME280;3142;48.206;11.550;2024-02-16T04:08:20;95651.75;;;9.49;73.15
6218;BME280;3142;48.206;11.550;2024-02-16T04:10:47;95644.53;;;9.58;72.73
6218;BME280;3142;48.206;11.550;2024-02-16T04:13:13;95639.53;;;9.57;73.07
6218;BME280;3142;48.206;11.550;2024-02-16T04:15:40;95641.06;;;9.44;73.43
6218;BME280;3142;48.206;11.550;2024-02-16T04:18:06;95647.50;;;9.42;73.90
6218;BME280;3142;48.206;11.550;2024-02-16T04:20:33;95643.13;;;9.56;72.78
6218;BME280;3142;48.206;11.550;2024-02-16T04:23:01;95637.75;;;9.64;72.91
6218;BME280;3142;48.206;11.550;2024-02-16T04:25:28;95647.59;;;9.68;72.78
6218;BME280;3142;48.206;11.550;2024-02-16T04:27:54;95644.81;;;9.70;72.40
6218;BME280;3142;48.206;11.550;2024-02-16T04:30:21;95656.44;;;9.67;71.61
6218;BME280;3142;48.206;11.550;2024-02-16T04:32:48;95655.84;;;9.65;71.93
6218;BME280;3142;48.206;11.550;2024-02-16T04:35:14;95660.06;;;9.60;72.16
6218;BME280;3142;48.206;11.550;2024-02-16T04:37:42;95662.66;;;9.60;72.23
6218;BME280;3142;48.206;11.550;2024-02-16T04:40:10;95652.56;;;9.57;72.75
6218;BME280;3142;48.206;11.550;2024-02-16T04:42:38;95657.41;;;9.53;72.88
6218;BME280;3142;48.206;11.550;2024-02-16T04:45:06;95656.59;;;9.59;71.75
6218;BME280;3142;48.206;11.550;2024-02-16T04:47:32;95658.59;;;9.50;72.38
6218;BME280;3142;48.206;11.550;2024-02-16T04:49:59;95661.97;;;9.44;72.74
6218;BME280;3142;48.206;11.550;2024-02-16T04:52:25;95660.78;;;9.47;72.60
6218;BME280;3142;48.206;11.550;2024-02-16T04:54:52;95662.22;;;9.49;72.93
6218;BME280;3142;48.206;11.550;2024-02-16T04:57:20;95662.63;;;9.53;73.04
6218;BME280;3142;48.206;11.550;2024-02-16T04:59:46;95657.44;;;9.60;73.29
6218;BME280;3142;48.206;11.550;2024-02-16T05:02:13;95666.91;;;9.67;73.05
6218;BME280;3142;48.206;11.550;2024-02-16T05:04:39;95662.88;;;9.65;71.92
6218;BME280;3142;48.206;11.550;2024-02-16T05:07:05;95655.19;;;9.50;72.94
6218;BME280;3142;48.206;11.550;2024-02-16T05:09:32;95658.00;;;9.48;72.47
6218;BME280;3142;48.206;11.550;2024-02-16T05:11:59;95659.81;;;9.55;72.37
6218;BME280;3142;48.206;11.550;2024-02-16T05:14:27;95661.81;;;9.53;73.08
6218;BME280;3142;48.206;11.550;2024-02-16T05:16:53;95653.56;;;9.49;72.64
6218;BME280;3142;48.206;11.550;2024-02-16T05:19:19;95660.00;;;9.46;72.66
6218;BME280;3142;48.206;11.550;2024-02-16T05:21:46;95660.78;;;9.47;73.52
6218;BME280;3142;48.206;11.550;2024-02-16T05:24:13;95658.78;;;9.49;72.44
6218;BME280;3142;48.206;11.550;2024-02-16T05:26:39;95659.34;;;9.38;73.70
6218;BME280;3142;48.206;11.550;2024-02-16T05:29:06;95658.31;;;9.39;72.76
6218;BME280;3142;48.206;11.550;2024-02-16T05:31:32;95652.09;;;9.40;72.96
6218;BME280;3142;48.206;11.550;2024-02-16T05:33:59;95657.53;;;9.45;72.88
6218;BME280;3142;48.206;11.550;2024-02-16T05:36:25;95656.78;;;9.51;73.04
6218;BME280;3142;48.206;11.550;2024-02-16T05:38:55;95658.59;;;9.50;72.66
6218;BME280;3142;48.206;11.550;2024-02-16T05:41:24;95659.59;;;9.56;72.46
6218;BME280;3142;48.206;11.550;2024-02-16T05:43:51;95658.41;;;9.59;72.42
6218;BME280;3142;48.206;11.550;2024-02-16T05:46:17;95654.38;;;9.56;73.28
6218;BME280;3142;48.206;11.550;2024-02-16T05:48:45;95660.84;;;9.60;72.98
6218;BME280;3142;48.206;11.550;2024-02-16T05:51:12;95650.00;;;9.63;72.29
6218;BME280;3142;48.206;11.550;2024-02-16T05:53:39;95662.03;;;9.58;72.87
6218;BME280;3142;48.206;11.550;2024-02-16T05:56:06;95661.03;;;9.59;72.53
6218;BME280;3142;48.206;11.550;2024-02-16T05:58:33;95663.63;;;9.59;72.05
6218;BME280;3142;48.206;11.550;2024-02-16T06:01:00;95667.69;;;9.61;71.74
6218;BME280;3142;48.206;11.550;2024-02-16T06:03:26;95659.22;;;9.59;72.03
6218;BME280;3142;48.206;11.550;2024-02-16T06:05:54;95671.06;;;9.55;71.67
6218;BME280;3142;48.206;11.550;2024-02-16T06:08:20;95672.66;;;9.56;72.73
6218;BME280;3142;48.206;11.550;2024-02-16T06:10:47;95666.50;;;9.64;71.13
6218;BME280;3142;48.206;11.550;2024-02-16T06:13:16;95669.31;;;9.62;71.95
6218;BME280;3142;48.206;11.550;2024-02-16T06:15:42;95675.09;;;9.58;72.09
6218;BME280;3142;48.206;11.550;2024-02-16T06:18:09;95680.31;;;9.58;72.08
6218;BME280;3142;48.206;11.550;2024-02-16T06:20:35;95683.91;;;9.57;71.39
6218;BME280;3142;48.206;11.550;2024-02-16T06:23:03;95675.75;;;9.66;71.01
6218;BME280;3142;48.206;11.550;2024-02-16T06:25:30;95688.59;;;9.68;70.64
6218;BME280;3142;48.206;11.550;2024-02-16T06:27:57;95693.63;;;9.69;70.93
6218;BME280;3142;48.206;11.550;2024-02-16T06:30:23;95703.69;;;9.72;71.19
6218;BME280;3142;48.206;11.550;2024-02-16T06:32:50;95698.28;;;9.74;71.26
6218;BME280;3142;48.206;11.550;2024-02-16T06:35:17;95702.06;;;9.71;71.37
6218;BME280;3142;48.206;11.550;2024-02-16T06:37:43;95706.34;;;9.79;70.66
6218;BME280;3142;48.206;11.550;2024-02-16T06:40:11;95720.69;;;9.96;69.93
6218;BME280;3142;48.206;11.550;2024-02-16T06:42:39;95714.91;;;10.07;70.04
6218;BME280;3142;48.206;11.550;2024-02-16T06:45:06;95723.22;;;10.24;69.56
6218;BME280;3142;48.206;11.550;2024-02-16T06:47:33;95729.47;;;10.30;69.32
6218;BME280;3142;48.206;11.550;2024-02-16T06:49:59;95735.31;;;10.32;69.27
6218;BME280;3142;48.206;11.550;2024-02-16T06:52:26;95736.25;;;10.18;69.28
6218;BME280;3142;48.206;11.550;2024-02-16T06:54:53;95738.25;;;10.16;69.59
6218;BME280;3142;48.206;11.550;2024-02-16T06:57:21;95749.19;;;10.39;69.19
6218;BME280;3142;48.206;11.550;2024-02-16T06:59:48;95745.59;;;10.40;69.31
6218;BME280;3142;48.206;11.550;2024-02-16T07:02:14;95741.72;;;10.23;69.88
6218;BME280;3142;48.206;11.550;2024-02-16T07:04:42;95747.72;;;10.17;69.54
6218;BME280;3142;48.206;11.550;2024-02-16T07:07:10;95739.25;;;10.15;70.02
6218;BME280;3142;48.206;11.550;2024-02-16T07:09:37;95749.56;;;10.23;69.35
6218;BME280;3142;48.206;11.550;2024-02-16T07:12:05;95751.56;;;10.27;68.93
6218;BME280;3142;48.206;11.550;2024-02-16T07:14:34;95753.03;;;10.30;69.15
6218;BME280;3142;48.206;11.550;2024-02-16T07:17:00;95751.00;;;10.32;68.41
6218;BME280;3142;48.206;11.550;2024-02-16T07:19:27;95754.22;;;10.34;68.73
6218;BME280;3142;48.206;11.550;2024-02-16T07:21:54;95748.59;;;10.37;68.48
6218;BME280;3142;48.206;11.550;2024-02-16T07:24:20;95752.44;;;10.41;68.39
6218;BME280;3142;48.206;11.550;2024-02-16T07:26:46;95753.25;;;10.42;69.07
6218;BME280;3142;48.206;11.550;2024-02-16T07:29:14;95756.88;;;10.47;68.79
6218;BME280;3142;48.206;11.550;2024-02-16T07:31:43;95757.28;;;10.51;68.15
6218;BME280;3142;48.206;11.550;2024-02-16T07:34:09;95754.31;;;10.60;67.86
6218;BME280;3142;48.206;11.550;2024-02-16T07:36:36;95762.41;;;10.98;67.03
6218;BME280;3142;48.206;11.550;2024-02-16T07:39:03;95758.94;;;11.64;65.35
6218;BME280;3142;48.206;11.550;2024-02-16T07:41:30;95760.34;;;11.80;64.62
6218;BME280;3142;48.206;11.550;2024-02-16T07:43:56;95770.41;;;11.63;65.69
6218;BME280;3142;48.206;11.550;2024-02-16T07:46:22;95763.81;;;11.54;66.23
6218;BME280;3142;48.206;11.550;2024-02-16T07:48:50;95767.63;;;11.45;65.38
6218;BME280;3142;48.206;11.550;2024-02-16T07:51:17;95768.47;;;11.39;65.38
6218;BME280;3142;48.206;11.550;2024-02-16T07:53:43;95768.22;;;11.60;64.84
6218;BME280;3142;48.206;11.550;2024-02-16T07:56:11;95758.06;;;12.03;64.35
6218;BME280;3142;48.206;11.550;2024-02-16T07:58:38;95760.75;;;12.73;62.77
6218;BME280;3142;48.206;11.550;2024-02-16T08:01:04;95767.16;;;12.84;62.62
6218;BME280;3142;48.206;11.550;2024-02-16T08:03:31;95771.31;;;12.60;63.39
6218;BME280;3142;48.206;11.550;2024-02-16T08:06:00;95770.47;;;12.28;64.17
6218;BME280;3142;48.206;11.550;2024-02-16T08:08:26;95768.31;;;12.11;63.90
6218;BME280;3142;48.206;11.550;2024-02-16T08:10:53;95764.53;;;12.01;64.52
6218;BME280;3142;48.206;11.550;2024-02-16T08:13:19;95771.56;;;12.00;63.91
6218;BME280;3142;48.206;11.550;2024-02-16T08:15:46;95766.16;;;11.95;64.12
6218;BME280;3142;48.206;11.550;2024-02-16T08:18:13;95769.16;;;11.92;64.81
6218;BME280;3142;48.206;11.550;2024-02-16T08:20:39;95776.44;;;11.97;64.69
6218;BME280;3142;48.206;11.550;2024-02-16T08:23:07;95781.88;;;11.95;64.07
6218;BME280;3142;48.206;11.550;2024-02-16T08:25:34;95784.50;;;11.95;64.55
6218;BME280;3142;48.206;11.550;2024-02-16T08:28:00;95783.28;;;11.98;63.60
6218;BME280;3142;48.206;11.550;2024-02-16T08:30:27;95778.00;;;12.04;62.97
6218;BME280;3142;48.206;11.550;2024-02-16T08:32:53;95779.44;;;12.07;63.35
6218;BME280;3142;48.206;11.550;2024-02-16T08:35:20;95779.19;;;12.15;62.92
6218;BME280;3142;48.206;11.550;2024-02-16T08:37:46;95778.97;;;12.16;62.22
6218;BME280;3142;48.206;11.550;2024-02-16T08:40:15;95777.97;;;12.24;63.14
6218;BME280;3142;48.206;11.550;2024-02-16T08:42:41;95776.50;;;12.35;61.89
6218;BME280;3142;48.206;11.550;2024-02-16T08:45:08;95776.03;;;12.51;60.68
6218;BME280;3142;48.206;11.550;2024-02-16T08:47:35;95775.56;;;12.61;60.74
6218;BME280;3142;48.206;11.550;2024-02-16T08:50:01;95778.53;;;12.71;59.65
6218;BME280;3142;48.206;11.550;2024-02-16T08:52:28;95778.81;;;12.94;59.81
6218;BME280;3142;48.206;11.550;2024-02-16T08:54:54;95772.75;;;13.25;58.19
6218;BME280;3142;48.206;11.550;2024-02-16T08:57:22;95771.09;;;14.11;57.00
6218;BME280;3142;48.206;11.550;2024-02-16T08:59:49;95776.66;;;14.88;55.00
6218;BME280;3142;48.206;11.550;2024-02-16T09:02:15;95776.09;;;15.51;52.87
6218;BME280;3142;48.206;11.550;2024-02-16T09:04:42;95778.16;;;15.37;53.44
6218;BME280;3142;48.206;11.550;2024-02-16T09:07:08;95772.13;;;15.18;52.72
6218;BME280;3142;48.206;11.550;2024-02-16T09:09:36;95775.91;;;15.64;51.10
6218;BME280;3142;48.206;11.550;2024-02-16T09:12:02;95778.66;;;15.92;49.72
6218;BME280;3142;48.206;11.550;2024-02-16T09:14:30;95786.56;;;15.69;50.50
6218;BME280;3142;48.206;11.550;2024-02-16T09:16:57;95777.84;;;15.92;49.94
6218;BME280;3142;48.206;11.550;2024-02-16T09:19:23;95782.31;;;15.91;49.48
6218;BME280;3142;48.206;11.550;2024-02-16T09:21:50;95781.63;;;15.84;48.75
6218;BME280;3142;48.206;11.550;2024-02-16T09:24:16;95786.19;;;15.89;47.82
6218;BME280;3142;48.206;11.550;2024-02-16T09:26:43;95788.88;;;15.77;48.20
6218;BME280;3142;48.206;11.550;2024-02-16T09:29:11;95788.06;;;15.77;47.22
6218;BME280;3142;48.206;11.550;2024-02-16T09:31:39;95782.88;;;15.93;46.66
6218;BME280;3142;48.206;11.550;2024-02-16T09:34:06;95786.66;;;15.86;46.78
6218;BME280;3142;48.206;11.550;2024-02-16T09:36:32;95779.53;;;16.10;45.72
6218;BME280;3142;48.206;11.550;2024-02-16T09:39:01;95777.50;;;16.40;45.23
6218;BME280;3142;48.206;11.550;2024-02-16T09:41:28;95777.59;;;17.14;43.79
6218;BME280;3142;48.206;11.550;2024-02-16T09:43:54;95769.03;;;17.74;42.40
6218;BME280;3142;48.206;11.550;2024-02-16T09:46:21;95771.00;;;18.00;41.50
6218;BME280;3142;48.206;11.550;2024-02-16T09:48:51;95775.22;;;18.40;40.36
6218;BME280;3142;48.206;11.550;2024-02-16T09:51:18;95769.28;;;18.55;40.00
6218;BME280;3142;48.206;11.550;2024-02-16T09:53:50;95771.63;;;18.73;39.32
6218;BME280;3142;48.206;11.550;2024-02-16T09:56:18;95775.94;;;18.79;39.86
6218;BME280;3142;48.206;11.550;2024-02-16T09:58:45;95774.91;;;18.80;39.82
6218;BME280;3142;48.206;11.550;2024-02-16T10:01:17;95776.19;;;19.05;39.69
6218;BME280;3142;48.206;11.550;2024-02-16T10:03:44;95777.16;;;19.20;38.53
6218;BME280;3142;48.206;11.550;2024-02-16T10:06:13;95776.94;;;19.32;38.04
6218;BME280;3142;48.206;11.550;2024-02-16T10:08:48;95781.81;;;19.40;38.29
6218;BME280;3142;48.206;11.550;2024-02-16T10:11:15;95781.69;;;19.57;38.05
6218;BME280;3142;48.206;11.550;2024-02-16T10:13:53;95776.00;;;19.75;37.78
6218;BME280;3142;48.206;11.550;2024-02-16T10:16:20;95780.38;;;19.97;37.12
6218;BME280;3142;48.206;11.550;2024-02-16T10:18:47;95774.31;;;20.01;37.29
6218;BME280;3142;48.206;11.550;2024-02-16T10:21:24;95771.69;;;20.11;36.68
6218;BME280;3142;48.206;11.550;2024-02-16T10:23:56;95771.47;;;20.18;36.43
6218;BME280;3142;48.206;11.550;2024-02-16T10:26:23;95775.53;;;20.36;36.00
6218;BME280;3142;48.206;11.550;2024-02-16T10:28:50;95781.13;;;20.39;35.33
6218;BME280;3142;48.206;11.550;2024-02-16T10:31:22;95776.34;;;20.36;35.86
6218;BME280;3142;48.206;11.550;2024-02-16T10:33:55;95778.19;;;20.36;35.70
6218;BME280;3142;48.206;11.550;2024-02-16T10:36:24;95783.06;;;20.54;35.32
6218;BME280;3142;48.206;11.550;2024-02-16T10:38:54;95778.81;;;20.48;35.89
6218;BME280;3142;48.206;11.550;2024-02-16T10:41:23;95777.22;;;20.47;35.99
6218;BME280;3142;48.206;11.550;2024-02-16T10:43:53;95782.38;;;20.79;35.81
6218;BME280;3142;48.206;11.550;2024-02-16T10:46:20;95781.84;;;20.82;35.01
6218;BME280;3142;48.206;11.550;2024-02-16T10:48:47;95784.00;;;20.95;35.36
6218;BME280;3142;48.206;11.550;2024-02-16T10:51:15;95784.28;;;21.04;35.50
6218;BME280;3142;48.206;11.550;2024-02-16T10:53:45;95778.41;;;20.87;35.83
6218;BME280;3142;48.206;11.550;2024-02-16T10:56:13;95779.25;;;21.18;35.61
6218;BME280;3142;48.206;11.550;2024-02-16T10:58:39;95778.22;;;21.34;35.18
6218;BME280;3142;48.206;11.550;2024-02-16T11:01:09;95773.19;;;21.48;35.34
6218;BME280;3142;48.206;11.550;2024-02-16T11:03:38;95770.25;;;21.59;35.56
6218;BME280;3142;48.206;11.550;2024-02-16T11:06:14;95760.63;;;21.84;35.61
6218;BME280;3142;48.206;11.550;2024-02-16T11:08:42;95764.88;;;21.90;35.53
6218;BME280;3142;48.206;11.550;2024-02-16T11:11:10;95769.94;;;22.12;35.48
6218;BME280;3142;48.206;11.550;2024-02-16T11:13:38;95758.19;;;22.23;35.04
6218;BME280;3142;48.206;11.550;2024-02-16T11:16:07;95768.31;;;22.21;34.81
6218;BME280;3142;48.206;11.550;2024-02-16T11:18:37;95760.84;;;22.18;34.93
6218;BME280;3142;48.206;11.550;2024-02-16T11:21:05;95760.03;;;22.23;34.27
6218;BME280;3142;48.206;11.550;2024-02-16T11:23:34;95762.97;;;22.16;34.74
6218;BME280;3142;48.206;11.550;2024-02-16T11:26:01;95762.19;;;22.15;34.86
6218;BME280;3142;48.206;11.550;2024-02-16T11:28:31;95753.13;;;22.06;35.45
6218;BME280;3142;48.206;11.550;2024-02-16T11:30:58;95750.81;;;21.69;36.16
6218;BME280;3142;48.206;11.550;2024-02-16T11:33:25;95746.03;;;21.41;36.42
6218;BME280;3142;48.206;11.550;2024-02-16T11:35:53;95746.81;;;21.72;36.02
6218;BME280;3142;48.206;11.550;2024-02-16T11:38:20;95745.16;;;22.06;35.89
6218;BME280;3142;48.206;11.550;2024-02-16T11:40:53;95747.22;;;22.30;35.80
6218;BME280;3142;48.206;11.550;2024-02-16T11:43:20;95744.28;;;22.31;35.62
6218;BME280;3142;48.206;11.550;2024-02-16T11:45:48;95746.91;;;22.41;35.35
6218;BME280;3142;48.206;11.550;2024-02-16T11:48:19;95743.69;;;22.44;35.08
6218;BME280;3142;48.206;11.550;2024-02-16T11:50:46;95738.63;;;22.43;35.47
6218;BME280;3142;48.206;11.550;2024-02-16T11:53:16;95741.56;;;22.41;35.26
6218;BME280;3142;48.206;11.550;2024-02-16T11:55:46;95742.88;;;22.44;35.38
6218;BME280;3142;48.206;11.550;2024-02-16T11:58:13;95740.00;;;22.35;35.91
6218;BME280;3142;48.206;11.550;2024-02-16T12:00:40;95742.16;;;22.28;36.10
6218;BME280;3142;48.206;11.550;2024-02-16T12:03:08;95738.53;;;21.63;36.36
6218;BME280;3142;48.206;11.550;2024-02-16T12:05:34;95741.72;;;20.99;37.15
6218;BME280;3142;48.206;11.550;2024-02-16T12:08:01;95749.34;;;20.60;38.65
6218;BME280;3142;48.206;11.550;2024-02-16T12:10:28;95752.41;;;20.31;39.57
6218;BME280;3142;48.206;11.550;2024-02-16T12:12:55;95748.63;;;20.22;40.08
6218;BME280;3142;48.206;11.550;2024-02-16T12:15:22;95755.50;;;20.13;40.20
6218;BME280;3142;48.206;11.550;2024-02-16T12:17:58;95741.94;;;20.09;39.94
6218;BME280;3142;48.206;11.550;2024-02-16T12:20:26;95754.34;;;19.99;39.66
6218;BME280;3142;48.206;11.550;2024-02-16T12:22:52;95753.25;;;19.90;40.33
6218;BME280;3142;48.206;11.550;2024-02-16T12:25:19;95754.56;;;19.87;39.39
6218;BME280;3142;48.206;11.550;2024-02-16T12:27:45;95760.34;;;19.74;39.06
6218;BME280;3142;48.206;11.550;2024-02-16T12:30:12;95757.34;;;19.65;39.64
6218;BME280;3142;48.206;11.550;2024-02-16T12:32:39;95767.44;;;19.63;39.77
6218;BME280;3142;48.206;11.550;2024-02-16T12:35:06;95751.69;;;19.57;39.76
6218;BME280;3142;48.206;11.550;2024-02-16T12:37:34;95752.03;;;19.60;39.60
6218;BME280;3142;48.206;11.550;2024-02-16T12:40:03;95755.16;;;19.57;40.33
6218;BME280;3142;48.206;11.550;2024-02-16T12:42:31;95757.72;;;19.47;40.56
6218;BME280;3142;48.206;11.550;2024-02-16T12:44:58;95756.59;;;19.38;40.91
6218;BME280;3142;48.206;11.550;2024-02-16T12:47:24;95750.75;;;19.36;40.99
6218;BME280;3142;48.206;11.550;2024-02-16T12:49:50;95756.34;;;19.39;41.28
6218;BME280;3142;48.206;11.550;2024-02-16T12:52:20;95755.34;;;19.50;41.35
6218;BME280;3142;48.206;11.550;2024-02-16T12:54:49;95758.28;;;19.49;41.36
6218;BME280;3142;48.206;11.550;2024-02-16T12:57:15;95752.41;;;19.47;40.98
6218;BME280;3142;48.206;11.550;2024-02-16T12:59:42;95753.38;;;19.36;40.54
6218;BME280;3142;48.206;11.550;2024-02-16T13:02:08;95755.97;;;19.31;40.38
6218;BME280;3142;48.206;11.550;2024-02-16T13:04:35;95751.66;;;19.19;40.78
6218;BME280;3142;48.206;11.550;2024-02-16T13:07:01;95756.22;;;19.24;41.43
6218;BME280;3142;48.206;11.550;2024-02-16T13:09:28;95747.81;;;19.37;40.71
6218;BME280;3142;48.206;11.550;2024-02-16T13:11:56;95755.63;;;19.54;40.99
6218;BME280;3142;48.206;11.550;2024-02-16T13:14:22;95749.91;;;19.62;41.47